Time;durP1;ratioP1;P1;durP2;ratioP2;P2;SDS_P1;SDS_P2;PMS_P1;PMS_P2;Temp;Humidity;BMP_temperature;BMP_pressure;BME280_temperature;BME280_humidity;BME280_pressure;Samples;Min_cycle;Max_cycle;Signal;HPM_P1;HPM_P2
2021/12/16 00:09:59;;;;;;;25.12;13.65;;;;;;;1.59;82.20;101576.98;1649268;86;21240;-60
2021/12/16 00:36:20;;;;;;;19.10;10.25;;;;;;;1.89;82.27;101580.56;1649294;87;21378;-59
2021/12/16 00:39:30;;;;;;;17.45;10.03;;;;;;;1.84;82.06;101579.97;1656269;86;21247;-59
2021/12/16 00:45:57;;;;;;;16.45;10.15;;;;;;;1.79;81.78;101595.09;1647226;86;21216;-59
2021/12/16 00:49:20;;;;;;;18.32;10.55;;;;;;;1.80;81.92;101587.84;1647309;86;21281;-59
2021/12/16 00:55:48;;;;;;;22.25;14.10;;;;;;;1.91;82.08;101578.62;1635880;86;21227;-59
2021/12/16 00:58:56;;;;;;;46.68;27.52;;;;;;;1.92;81.68;101564.18;1647322;86;21247;-60
2021/12/16 01:02:18;;;;;;;29.07;15.80;;;;;;;1.88;81.81;101559.91;1647208;86;21252;-59
2021/12/16 01:05:50;;;;;;;22.52;13.53;;;;;;;1.90;81.83;101559.34;1647237;87;21200;-60
2021/12/16 01:45:40;;;;;;;20.52;10.25;;;;;;;2.15;81.85;101520.42;1647146;87;21267;-59
2021/12/16 01:55:09;;;;;;;17.65;9.43;;;;;;;2.25;81.52;101524.30;1647099;86;21220;-59
2021/12/16 01:58:20;;;;;;;;;;;;;;;2.26;81.51;101524.20;1649797;86;21315;-59
2021/12/16 02:01:31;;;;;;;18.50;9.00;;;;;;;2.22;81.13;101517.75;1641887;87;20205;-58
2021/12/16 02:05:09;;;;;;;18.17;10.20;;;;;;;2.09;80.98;101520.81;1647090;87;21232;-59
2021/12/16 02:08:19;;;;;;;15.58;9.10;;;;;;;1.92;80.89;101518.28;1642082;87;21770;-59
2021/12/16 02:28:26;;;;;;;19.45;10.03;;;;;;;1.88;81.98;101535.61;1627245;86;21271;-60
2021/12/16 02:31:34;;;;;;;21.35;12.85;;;;;;;1.94;81.85;101533.41;1647269;86;21228;-60
2021/12/16 02:34:55;;;;;;;18.65;10.68;;;;;;;1.98;81.87;101535.45;1647261;87;21259;-60
2021/12/16 02:37:48;;;;;;;17.48;10.95;;;;;;;1.99;81.93;101534.48;1647224;86;21307;-59
2021/12/16 02:40:54;;;;;;;18.07;10.65;;;;;;;2.03;81.87;101532.84;1647170;87;21251;-59
2021/12/16 02:44:22;;;;;;;21.52;11.33;;;;;;;2.08;81.98;101527.19;1656476;86;21366;-59
2021/12/16 02:50:58;;;;;;;18.80;11.53;;;;;;;2.06;81.72;101539.41;1656423;86;21337;-58
2021/12/16 02:54:07;;;;;;;20.15;11.35;;;;;;;2.06;81.64;101537.20;1656432;86;21217;-59
2021/12/16 02:57:27;;;;;;;20.70;11.83;;;;;;;1.99;81.66;101542.58;1649296;87;21343;-59
2021/12/16 03:00:32;;;;;;;23.70;13.90;;;;;;;2.06;82.03;101543.95;1639469;86;21455;-58
2021/12/16 03:03:40;;;;;;;27.17;16.80;;;;;;;2.17;82.09;101550.92;1639374;86;21762;-58
2021/12/16 03:06:46;;;;;;;25.40;15.40;;;;;;;2.13;81.67;101557.45;1632188;88;21885;-58
2021/12/16 03:13:23;;;;;;;23.67;16.02;;;;;;;1.89;81.49;101567.06;1639275;86;21301;-59
2021/12/16 03:16:26;;;;;;;22.77;14.07;;;;;;;1.79;81.63;101564.05;1609880;88;21203;-59
2021/12/16 03:19:42;;;;;;;22.37;13.10;;;;;;;1.80;81.90;101563.08;1639248;87;21397;-59
2021/12/16 03:26:52;;;;;;;25.90;15.40;;;;;;;1.80;82.01;101569.82;1632317;87;21372;-59
2021/12/16 03:36:14;;;;;;;26.70;14.20;;;;;;;1.73;82.41;101572.98;1632364;86;21323;-59
2021/12/16 03:39:17;;;;;;;26.02;15.65;;;;;;;1.79;82.59;101576.66;1639114;87;21432;-59
2021/12/16 03:42:38;;;;;;;21.15;12.73;;;;;;;1.72;82.37;101577.50;1638975;87;21246;-59
2021/12/16 03:49:27;;;;;;;20.95;13.38;;;;;;;1.71;82.70;101580.30;1639135;87;21265;-59
2021/12/16 03:52:40;;;;;;;21.15;13.13;;;;;;;1.73;82.90;101583.78;1639351;87;21367;-58
2021/12/16 03:55:48;;;;;;;24.70;14.13;;;;;;;1.78;82.69;101583.00;1639112;87;21388;-57
2021/12/16 03:58:55;;;;;;;20.88;12.30;;;;;;;1.78;82.57;101575.78;1643877;82;21467;-59
2021/12/16 04:02:05;;;;;;;20.88;12.78;;;;;;;1.77;82.40;101563.73;1637407;86;21257;-58
2021/12/16 04:05:14;;;;;;;18.60;12.13;;;;;;;1.83;82.47;101567.41;1648718;87;21286;-59
2021/12/16 04:08:25;;;;;;;20.23;11.60;;;;;;;1.89;82.33;101566.56;1646623;86;21443;-59
2021/12/16 04:11:43;;;;;;;22.20;13.35;;;;;;;1.90;81.94;101556.17;1639354;86;21225;-59
2021/12/16 04:14:49;;;;;;;21.62;12.88;;;;;;;1.81;81.52;101561.25;1648773;87;21378;-58
2021/12/16 04:18:01;;;;;;;16.67;11.25;;;;;;;1.74;81.56;101572.02;1660802;86;21380;-58
2021/12/16 04:21:11;;;;;;;20.92;12.20;;;;;;;1.75;81.68;101560.24;1638580;86;21257;-62
2021/12/16 04:24:17;;;;;;;17.40;11.25;;;;;;;1.79;81.64;101552.37;1632637;86;21581;-58
2021/12/16 04:27:19;;;;;;;17.73;11.18;;;;;;;1.86;81.68;101546.50;1636468;86;21342;-57
2021/12/16 04:30:19;;;;;;;18.55;10.50;;;;;;;1.97;81.51;101544.49;1661058;86;21901;-57
2021/12/16 04:33:30;;;;;;;18.12;11.45;;;;;;;2.03;81.17;101542.80;1661119;86;21271;-57
2021/12/16 04:36:38;;;;;;;15.28;10.65;;;;;;;2.06;80.88;101540.75;1641888;86;21388;-58
2021/12/16 04:39:45;;;;;;;15.93;10.53;;;;;;;2.12;80.55;101530.95;1648341;87;21265;-59
2021/12/16 04:42:59;;;;;;;13.90;10.03;;;;;;;2.16;80.14;101535.66;1660377;86;21393;-60
2021/12/16 04:46:12;;;;;;;16.23;10.13;;;;;;;2.16;79.69;101532.95;1660530;86;21272;-58
2021/12/16 04:49:25;;;;;;;15.78;10.00;;;;;;;2.12;79.33;101528.72;1648458;87;21266;-59
2021/12/16 04:52:31;;;;;;;14.78;9.53;;;;;;;2.12;79.20;101519.27;1636937;86;21210;-58
2021/12/16 04:55:38;;;;;;;16.35;11.08;;;;;;;2.17;79.03;101521.20;1634465;88;21366;-58
2021/12/16 04:58:49;;;;;;;14.05;9.38;;;;;;;2.20;78.62;101531.35;1660931;86;21297;-59
2021/12/16 05:02:04;;;;;;;14.90;9.83;;;;;;;2.15;78.23;101521.77;1630288;82;21278;-60
2021/12/16 05:05:15;;;;;;;14.93;10.03;;;;;;;2.11;77.82;101529.19;1601081;89;21752;-59
2021/12/16 05:08:23;;;;;;;14.98;10.05;;;;;;;2.06;77.49;101515.09;1625452;88;21254;-58
2021/12/16 05:11:36;;;;;;;15.78;9.90;;;;;;;2.08;77.34;101523.98;1643303;87;21290;-59
2021/12/16 05:14:44;;;;;;;18.50;12.03;;;;;;;2.07;76.99;101520.03;1626003;88;21834;-58
2021/12/16 05:17:54;;;;;;;13.95;9.40;;;;;;;2.06;76.88;101520.50;1625618;88;21294;-58
2021/12/16 05:20:59;;;;;;;13.88;9.63;;;;;;;2.10;76.67;101524.77;1601251;88;21227;-58
2021/12/16 05:27:31;;;;;;;13.18;9.08;;;;;;;1.96;75.79;101529.27;1600913;89;21239;-59
2021/12/16 05:30:40;;;;;;;15.13;9.53;;;;;;;1.96;75.79;101536.02;1625609;88;21225;-58
2021/12/16 05:33:48;;;;;;;14.53;9.53;;;;;;;1.97;75.80;101539.97;1602702;88;21314;-58
2021/12/16 05:37:01;;;;;;;15.40;9.93;;;;;;;2.03;75.85;101540.94;1625575;87;21219;-59
2021/12/16 05:40:07;;;;;;;14.20;9.13;;;;;;;2.07;75.66;101542.98;1640118;87;21278;-60
2021/12/16 05:43:24;;;;;;;13.35;9.63;;;;;;;2.07;75.48;101544.33;1638674;87;21858;-59
2021/12/16 05:46:35;;;;;;;10.93;7.75;;;;;;;2.09;75.15;101549.17;1619089;87;21226;-59
2021/12/16 05:49:42;;;;;;;21.68;9.68;;;;;;;1.97;74.89;101552.13;1611337;88;21234;-59
2021/12/16 05:52:47;;;;;;;10.15;7.33;;;;;;;1.87;74.56;101552.28;1577947;88;22058;-59
2021/12/16 05:55:56;;;;;;;12.50;9.05;;;;;;;1.79;74.49;101555.07;1615668;88;21269;-59
2021/12/16 05:59:04;;;;;;;14.13;9.08;;;;;;;1.80;74.48;101559.50;1597697;89;21285;-59
2021/12/16 06:02:11;;;;;;;12.68;9.15;;;;;;;1.80;74.04;101563.08;1617426;83;21250;-59
2021/12/16 06:05:17;;;;;;;21.07;15.30;;;;;;;1.76;73.78;101570.11;1601034;88;21237;-58
2021/12/16 06:08:23;;;;;;;16.93;10.40;;;;;;;1.73;73.90;101558.98;1603192;88;21795;-60
2021/12/16 06:11:32;;;;;;;14.58;10.30;;;;;;;1.79;73.85;101552.37;1610039;88;21234;-58
2021/12/16 06:14:51;;;;;;;14.20;9.20;;;;;;;1.88;73.81;101553.16;1602569;88;21298;-57
2021/12/16 06:28:05;;;;;;;12.53;8.95;;;;;;;2.01;73.08;101550.99;1612390;87;21308;-57
2021/12/16 06:31:11;;;;;;;12.85;9.00;;;;;;;2.03;72.77;101543.64;1576587;90;21814;-58
2021/12/16 06:34:19;;;;;;;13.68;10.13;;;;;;;2.12;72.70;101543.11;1591047;89;21298;-58
2021/12/16 06:37:28;;;;;;;15.15;9.78;;;;;;;2.19;72.45;101539.05;1617088;88;21842;-58
2021/12/16 06:40:36;;;;;;;13.93;10.38;;;;;;;2.29;72.31;101540.70;1625044;87;21198;-58
2021/12/16 06:44:06;;;;;;;25.23;13.28;;;;;;;2.38;72.09;101542.84;1595941;87;21289;-60
2021/12/16 06:47:20;;;;;;;19.75;12.03;;;;;;;2.43;71.99;101548.34;1616700;88;21223;-58
2021/12/16 06:50:34;;;;;;;56.15;34.43;;;;;;;2.52;71.81;101546.39;1638990;87;21580;-58
2021/12/16 06:53:48;;;;;;;25.80;15.55;;;;;;;2.56;71.56;101545.25;1607016;88;21438;-59
2021/12/16 06:56:51;;;;;;;14.65;10.43;;;;;;;2.59;71.35;101553.16;1616990;88;21675;-58
2021/12/16 07:00:05;;;;;;;36.17;21.73;;;;;;;2.46;70.72;101547.26;1615927;88;21254;-59
2021/12/16 07:03:06;;;;;;;54.75;31.50;;;;;;;2.29;70.88;101546.98;1630427;81;21258;-58
2021/12/16 07:06:13;;;;;;;34.05;20.12;;;;;;;2.25;71.29;101542.71;1623363;87;21237;-63
2021/12/16 07:09:23;;;;;;;15.63;10.95;;;;;;;2.26;71.43;101546.29;1623007;87;21233;-59
2021/12/16 07:12:36;;;;;;;13.68;10.32;;;;;;;2.25;71.52;101535.11;1638407;86;21773;-58
2021/12/16 07:15:39;;;;;;;15.83;11.78;;;;;;;2.14;71.73;101539.80;1614722;88;21281;-58
2021/12/16 07:18:45;;;;;;;15.53;11.00;;;;;;;2.18;72.11;101539.14;1595044;88;21265;-59
2021/12/16 07:21:51;;;;;;;16.07;11.53;;;;;;;2.26;72.34;101542.23;1627992;87;21768;-59
2021/12/16 07:24:56;;;;;;;15.45;10.50;;;;;;;2.30;72.33;101538.41;1621193;87;21310;-59
2021/12/16 07:28:04;;;;;;;25.57;15.30;;;;;;;2.38;72.47;101535.59;1629121;86;21798;-58
2021/12/16 07:31:08;;;;;;;23.60;14.43;;;;;;;2.45;72.45;101528.84;1634653;87;22073;-58
2021/12/16 07:34:16;;;;;;;19.52;12.47;;;;;;;2.54;72.39;101525.55;1629092;87;21268;-58
2021/12/16 07:37:21;;;;;;;13.22;9.23;;;;;;;2.60;72.14;101534.63;1630324;87;21282;-60
2021/12/16 07:40:30;;;;;;;13.05;8.45;;;;;;;2.64;72.04;101540.23;1598293;89;21239;-51
2021/12/16 07:47:00;;;;;;;21.10;12.80;;;;;;;2.65;72.33;101527.09;1658040;86;21224;-57
2021/12/16 07:50:09;;;;;;;18.12;11.45;;;;;;;2.65;72.33;101527.09;1616380;87;21790;-59
2021/12/16 07:53:14;;;;;;;20.08;11.78;;;;;;;2.68;72.69;101534.16;1616617;88;21309;-59
2021/12/16 07:56:21;;;;;;;26.80;15.28;;;;;;;2.70;72.87;101518.69;1641904;85;21242;-58
2021/12/16 07:59:26;;;;;;;16.67;10.50;;;;;;;2.74;72.99;101521.09;1638411;87;21280;-58
2021/12/16 08:02:35;;;;;;;19.30;11.45;;;;;;;2.81;73.05;101518.86;1616645;88;21305;-57
2021/12/16 08:05:44;;;;;;;38.15;18.32;;;;;;;2.85;73.07;101519.91;1605225;89;21250;-59
2021/12/16 08:08:55;;;;;;;22.37;12.80;;;;;;;2.90;73.15;101518.29;1605606;88;21237;-59
2021/12/16 08:12:03;;;;;;;17.82;10.58;;;;;;;2.91;73.04;101518.66;1624918;88;21293;-58
2021/12/16 08:15:08;;;;;;;20.80;11.75;;;;;;;2.94;73.10;101517.10;1580205;90;21535;-59
2021/12/16 08:18:14;;;;;;;17.70;10.78;;;;;;;2.94;73.09;101512.58;1588847;89;21311;-59
2021/12/16 08:21:29;;;;;;;27.32;14.20;;;;;;;2.95;73.24;101502.60;1616431;87;22044;-58
2021/12/16 08:24:34;;;;;;;18.95;11.43;;;;;;;3.01;73.39;101492.25;1632194;88;21848;-57
2021/12/16 08:27:44;;;;;;;;;;;;;;;3.04;73.38;101487.99;1635859;86;21482;-57
2021/12/16 08:30:54;;;;;;;20.23;11.25;;;;;;;3.07;73.43;101485.59;1635384;86;20260;-59
2021/12/16 08:34:05;;;;;;;20.43;12.05;;;;;;;3.03;73.35;101479.51;1611552;89;21297;-59
2021/12/16 08:37:14;;;;;;;19.57;10.25;;;;;;;3.02;73.48;101474.20;1605472;89;21222;-60
2021/12/16 08:40:25;;;;;;;16.02;9.40;;;;;;;3.00;73.54;101470.72;1614501;87;21316;-59
2021/12/16 08:43:33;;;;;;;16.20;9.28;;;;;;;2.97;73.82;101474.98;1615494;88;21282;-61
2021/12/16 08:46:40;;;;;;;15.50;9.10;;;;;;;2.99;73.89;101463.59;1583311;89;21646;-59
2021/12/16 08:49:46;;;;;;;11.83;7.95;;;;;;;2.98;74.06;101455.95;1623493;87;21252;-60
2021/12/16 08:52:51;;;;;;;16.52;11.65;;;;;;;2.99;74.14;101451.42;1631512;87;21608;-59
2021/12/16 08:55:57;;;;;;;19.90;12.05;;;;;;;3.02;74.23;101455.27;1634669;87;21218;-60
2021/12/16 08:59:04;;;;;;;14.50;10.08;;;;;;;3.00;74.28;101446.38;1621626;87;21264;-60
2021/12/16 09:02:11;;;;;;;14.50;10.72;;;;;;;3.01;74.36;101449.48;1614239;87;21221;-59
2021/12/16 09:05:18;;;;;;;18.32;11.63;;;;;;;2.97;74.39;101447.94;1645190;81;21762;-59
2021/12/16 09:08:25;;;;;;;16.70;10.85;;;;;;;2.89;74.47;101443.52;1658571;85;21246;-58
2021/12/16 09:11:58;;;;;;;13.20;8.95;;;;;;;2.87;74.55;101437.37;1620567;88;21237;-58
2021/12/16 09:14:53;;;;;;;16.82;9.68;;;;;;;2.87;74.69;101436.02;1633807;86;21273;-59
2021/12/16 09:18:03;;;;;;;14.53;8.08;;;;;;;2.86;74.86;101436.49;1631339;86;21253;-58
2021/12/16 09:21:10;;;;;;;10.98;8.28;;;;;;;2.88;74.99;101439.97;1654444;86;21261;-59
2021/12/16 09:24:18;;;;;;;12.63;8.05;;;;;;;2.73;74.78;101427.45;1640153;87;21234;-60
2021/12/16 09:27:26;;;;;;;11.43;7.78;;;;;;;2.62;75.22;101419.65;1657884;86;21588;-59
2021/12/16 09:30:35;;;;;;;13.05;8.60;;;;;;;2.57;75.46;101407.80;1639348;86;21387;-59
2021/12/16 09:33:43;;;;;;;10.75;6.70;;;;;;;2.56;75.79;101407.89;1653842;86;21616;-59
2021/12/16 09:36:50;;;;;;;11.12;7.72;;;;;;;2.54;75.98;101409.34;1620417;86;21899;-60
2021/12/16 09:39:55;;;;;;;8.80;6.50;;;;;;;2.56;76.24;101409.24;1650224;86;21257;-59
2021/12/16 09:43:00;;;;;;;11.03;6.30;;;;;;;2.59;76.22;101400.93;1645570;86;21283;-58
2021/12/16 09:46:12;;;;;;;10.58;6.47;;;;;;;2.65;76.21;101403.22;1659375;86;21770;-57
2021/12/16 09:49:24;;;;;;;8.38;4.42;;;;;;;2.70;76.11;101394.34;1620261;86;22079;-58
2021/12/16 09:52:29;;;;;;;6.78;4.00;;;;;;;2.76;75.82;101381.28;1657356;86;21216;-57
2021/12/16 09:55:34;;;;;;;4.95;3.45;;;;;;;2.85;75.59;101378.47;1631975;86;21616;-58
2021/12/16 09:58:43;;;;;;;7.97;5.33;;;;;;;2.91;75.13;101369.45;1614534;86;21761;-59
2021/12/16 10:01:50;;;;;;;7.67;5.90;;;;;;;3.01;74.87;101367.00;1606261;89;21227;-59
2021/12/16 10:04:55;;;;;;;7.25;4.78;;;;;;;3.09;74.71;101361.94;1649297;86;21222;-59
2021/12/16 10:08:03;;;;;;;5.65;3.90;;;;;;;3.20;74.54;101363.90;1630765;86;21265;-58
2021/12/16 10:11:09;;;;;;;6.95;4.37;;;;;;;3.27;74.23;101359.30;1604224;87;21199;-59
2021/12/16 10:17:28;;;;;;;9.25;5.80;;;;;;;3.35;73.61;101354.23;1605816;89;21761;-58
2021/12/16 10:20:35;;;;;;;;;;;;;;;3.30;73.46;101347.42;1610047;87;21287;-58
2021/12/16 10:23:49;;;;;;;7.58;4.40;;;;;;;3.28;73.49;101349.36;1582530;90;20577;-57
2021/12/16 10:26:54;;;;;;;8.55;5.47;;;;;;;3.23;73.35;101345.63;1612569;88;21283;-57
2021/12/16 10:30:10;;;;;;;8.60;6.03;;;;;;;3.19;73.44;101331.91;1613012;88;21263;-58
2021/12/16 10:33:38;;;;;;;7.72;5.10;;;;;;;3.21;73.49;101334.50;1606670;89;21286;-58
2021/12/16 10:36:48;;;;;;;11.43;7.70;;;;;;;3.27;73.65;101340.88;1606638;89;21246;-57
2021/12/16 10:39:54;;;;;;;12.53;7.20;;;;;;;3.35;73.68;101328.52;1612589;89;21669;-58
2021/12/16 10:43:00;;;;;;;8.63;5.95;;;;;;;3.41;73.70;101330.80;1613979;89;21501;-58
2021/12/16 10:46:26;;;;;;;13.20;8.65;;;;;;;3.46;73.69;101330.47;1614466;89;21760;-58
2021/12/16 10:49:44;;;;;;;10.50;7.40;;;;;;;3.49;73.59;101326.22;1593919;89;21699;-58
2021/12/16 10:52:49;;;;;;;9.33;6.30;;;;;;;3.46;73.53;101323.22;1598197;89;21284;-58
2021/12/16 10:56:08;;;;;;;7.35;5.45;;;;;;;3.38;73.33;101329.66;1576064;90;21752;-58
2021/12/16 10:59:38;;;;;;;10.40;7.85;;;;;;;3.26;73.33;101304.82;1607670;89;21223;-59
2021/12/16 11:02:46;;;;;;;12.13;7.92;;;;;;;3.19;73.52;101302.66;1591965;90;21235;-57
2021/12/16 11:05:56;;;;;;;15.48;9.73;;;;;;;3.25;73.95;101300.88;1600540;89;22094;-58
2021/12/16 11:09:24;;;;;;;16.40;10.38;;;;;;;3.31;73.93;101296.38;1631858;86;21245;-58
2021/12/16 11:13:03;;;;;;;9.28;6.97;;;;;;;3.31;73.94;101304.02;1634445;86;21254;-58
2021/12/16 11:16:11;;;;;;;8.75;6.85;;;;;;;3.26;73.85;101299.89;1632768;86;21274;-59
2021/12/16 11:19:21;;;;;;;13.03;7.35;;;;;;;3.19;73.87;101283.72;1613251;86;21258;-59
2021/12/16 11:22:31;;;;;;;17.55;10.18;;;;;;;3.19;74.11;101292.68;1633643;86;21279;-60
2021/12/16 11:25:43;;;;;;;11.55;7.62;;;;;;;3.23;74.23;101277.98;1625701;87;21823;-58
2021/12/16 11:28:56;;;;;;;10.85;7.15;;;;;;;3.16;73.92;101282.08;1608157;89;21306;-58
2021/12/16 11:32:03;;;;;;;9.48;7.12;;;;;;;2.97;73.97;101268.97;1633122;86;21199;-57
2021/12/16 11:35:11;;;;;;;10.30;5.55;;;;;;;2.97;74.29;101268.09;1604170;88;21229;-57
2021/12/16 11:38:31;;;;;;;10.40;6.28;;;;;;;3.04;74.46;101270.77;1632651;86;21599;-58
2021/12/16 11:41:47;;;;;;;8.03;5.75;;;;;;;3.06;74.27;101266.09;1618918;86;21743;-58
2021/12/16 11:44:53;;;;;;;10.72;6.25;;;;;;;3.05;74.33;101269.31;1625160;86;21294;-58
2021/12/16 11:47:59;;;;;;;9.13;6.00;;;;;;;3.08;74.42;101270.45;1608176;87;21293;-58
2021/12/16 11:51:23;;;;;;;7.45;5.53;;;;;;;3.15;74.39;101261.90;1618749;86;22105;-58
2021/12/16 11:54:35;;;;;;;6.03;4.80;;;;;;;3.18;74.21;101263.91;1629395;86;21843;-57
2021/12/16 11:57:54;;;;;;;6.30;4.83;;;;;;;3.08;73.99;101256.05;1633449;87;21332;-57
2021/12/16 12:01:03;;;;;;;11.00;6.37;;;;;;;3.01;74.13;101255.61;1619910;86;21770;-57
2021/12/16 12:04:10;;;;;;;11.85;6.78;;;;;;;2.97;74.21;101251.40;1636301;86;21924;-58
2021/12/16 12:07:20;;;;;;;7.92;5.35;;;;;;;2.95;74.45;101252.45;1624715;87;21867;-57
2021/12/16 12:10:48;;;;;;;10.38;7.17;;;;;;;2.96;74.52;101248.80;1605292;89;21836;-57
2021/12/16 12:14:01;;;;;;;8.95;6.45;;;;;;;2.92;74.53;101249.97;1594533;89;21973;-58
2021/12/16 12:17:17;;;;;;;13.70;8.38;;;;;;;2.88;74.79;101254.75;1604970;88;21807;-58
2021/12/16 12:20:22;;;;;;;13.00;7.85;;;;;;;2.87;75.15;101244.88;1604895;89;21336;-57
2021/12/16 12:23:29;;;;;;;9.05;6.22;;;;;;;2.93;75.29;101240.39;1600736;87;21638;-58
2021/12/16 12:26:37;;;;;;;6.90;5.25;;;;;;;2.88;75.29;101234.95;1603933;89;21839;-57
2021/12/16 12:29:56;;;;;;;6.05;4.75;;;;;;;2.88;75.46;101235.82;1600804;89;22086;-57
2021/12/16 12:33:02;;;;;;;7.00;5.50;;;;;;;2.79;75.41;101249.11;1599566;89;21259;-58
2021/12/16 12:36:15;;;;;;;6.40;4.67;;;;;;;2.66;75.52;101234.19;1603557;87;21227;-58
2021/12/16 12:39:23;;;;;;;9.33;6.55;;;;;;;2.60;75.70;101235.12;1600698;89;21231;-57
2021/12/16 12:42:29;;;;;;;9.73;6.67;;;;;;;2.54;75.96;101237.73;1591220;89;21306;-58
2021/12/16 12:45:41;;;;;;;13.05;8.15;;;;;;;2.55;76.18;101238.62;1599837;89;21600;-58
2021/12/16 12:48:52;;;;;;;11.40;7.20;;;;;;;2.53;76.33;101233.31;1602436;89;21274;-58
2021/12/16 12:51:59;;;;;;;10.32;6.17;;;;;;;2.54;76.49;101240.44;1603563;87;21649;-58
2021/12/16 12:55:11;;;;;;;9.18;6.97;;;;;;;2.55;76.64;101229.16;1593736;89;21250;-57
2021/12/16 12:58:22;;;;;;;10.82;7.08;;;;;;;2.62;76.87;101235.86;1604147;89;21884;-57
2021/12/16 13:01:41;;;;;;;12.20;7.00;;;;;;;2.59;76.71;101221.20;1606476;89;21586;-59
2021/12/16 13:04:59;;;;;;;7.40;5.62;;;;;;;2.55;76.76;101214.30;1606242;89;21259;-57
2021/12/16 13:08:18;;;;;;;11.60;7.10;;;;;;;2.48;76.82;101198.98;1606254;89;21251;-59
2021/12/16 13:11:30;;;;;;;11.55;7.17;;;;;;;2.43;77.12;101204.30;1626696;87;21221;-57
2021/12/16 13:14:51;;;;;;;10.63;8.65;;;;;;;2.44;77.30;101220.91;1607867;88;21291;-58
2021/12/16 13:25:22;;;;;;;17.48;10.48;;;;;;;2.44;77.52;101208.76;1618179;88;21273;-52
2021/12/16 13:28:20;;;;;;;17.92;9.58;;;;;;;2.44;77.59;101204.20;1630812;86;21794;-52
2021/12/16 13:31:51;;;;;;;37.15;15.48;;;;;;;2.44;77.74;101206.05;1608427;89;21239;-51
2021/12/16 13:36:01;;;;;;;58.00;24.23;;;;;;;2.41;77.94;101196.81;1631015;86;21253;-52
2021/12/16 13:38:16;;;;;;;61.50;25.15;;;;;;;2.42;78.12;101197.18;1628309;87;21313;-53
2021/12/16 13:41:34;;;;;;;32.88;15.32;;;;;;;2.45;78.38;101194.27;1633824;86;21388;-53
2021/12/16 13:45:07;;;;;;;39.48;18.90;;;;;;;2.50;78.43;101189.42;1637318;86;21249;-52
2021/12/16 13:48:35;;;;;;;20.10;13.93;;;;;;;2.50;78.48;101186.24;1630823;86;21320;-52
2021/12/16 14:02:04;;;;;;;18.90;12.45;;;;;;;2.61;78.81;101161.17;1604852;88;21754;-54
2021/12/16 14:05:29;;;;;;;18.32;11.50;;;;;;;2.62;78.74;101160.19;1605533;88;21897;-52
2021/12/16 14:08:40;;;;;;;26.45;16.37;;;;;;;2.60;78.79;101154.89;1596232;89;21269;-51
2021/12/16 14:36:07;;;;;;;30.17;17.85;;;;;;;2.48;78.69;101119.75;1651548;86;21760;-51
2021/12/16 14:42:07;;;;;;;41.75;23.02;;;;;;;2.41;78.96;101113.06;1644512;87;21240;-53
2021/12/16 14:48:24;;;;;;;43.02;22.30;;;;;;;2.40;79.22;101108.13;1647802;86;21265;-51
2021/12/16 14:51:27;;;;;;;18.27;12.40;;;;;;;2.45;79.43;101104.63;1625207;86;21284;-52
2021/12/16 14:54:34;;;;;;;18.80;13.35;;;;;;;2.49;79.43;101109.34;1607356;89;21756;-53
2021/12/16 14:57:44;;;;;;;37.30;22.93;;;;;;;2.45;79.43;101110.51;1616845;86;21226;-53
2021/12/16 15:01:03;;;;;;;32.40;21.55;;;;;;;2.46;79.60;101104.99;1631123;86;21281;-52
2021/12/16 15:04:07;;;;;;;24.63;17.17;;;;;;;2.48;79.65;101115.69;1611141;88;21391;-53
2021/12/16 15:07:14;;;;;;;18.10;12.88;;;;;;;2.51;79.74;101108.72;1645006;86;22083;-53
2021/12/16 15:10:18;;;;;;;20.35;14.43;;;;;;;2.47;79.62;101105.88;1659387;86;21785;-53
2021/12/16 15:13:38;;;;;;;23.18;16.32;;;;;;;2.41;79.73;101106.30;1625200;86;21671;-53
2021/12/16 15:16:55;;;;;;;26.40;16.82;;;;;;;2.40;79.89;101095.09;1640988;86;21215;-52
2021/12/16 15:40:59;;;;;;;27.07;17.25;;;;;;;2.52;80.31;101079.40;1654726;86;21238;-53
2021/12/16 15:44:12;;;;;;;26.97;16.75;;;;;;;2.56;80.41;101079.55;1639390;86;21264;-52
2021/12/16 15:47:19;;;;;;;26.45;16.23;;;;;;;2.64;80.34;101086.62;1627971;88;21225;-53
2021/12/16 15:50:33;;;;;;;30.48;18.57;;;;;;;2.66;80.23;101081.98;1635372;86;21641;-52
2021/12/16 15:53:45;;;;;;;29.37;16.45;;;;;;;2.70;80.28;101076.25;1636776;86;21253;-52
2021/12/16 15:56:51;;;;;;;22.82;14.70;;;;;;;2.73;80.10;101080.08;1636912;86;21281;-52
2021/12/16 15:59:57;;;;;;;27.45;15.80;;;;;;;2.71;80.00;101070.37;1654327;86;22033;-53
2021/12/16 16:03:08;;;;;;;35.78;20.02;;;;;;;2.66;79.92;101065.26;1654156;86;21260;-52
2021/12/16 16:06:17;;;;;;;29.37;16.93;;;;;;;2.69;80.11;101065.07;1653727;86;21205;-51
2021/12/16 16:09:23;;;;;;;28.57;17.05;;;;;;;2.72;80.03;101068.03;1653895;86;21835;-51
2021/12/16 16:12:34;;;;;;;28.50;17.45;;;;;;;2.68;79.98;101067.88;1658702;80;21264;-50
2021/12/16 16:15:40;;;;;;;39.13;20.12;;;;;;;2.66;80.12;101069.31;1654440;86;21248;-51
2021/12/16 16:19:00;;;;;;;41.37;21.87;;;;;;;2.64;80.27;101063.66;1660664;86;21796;-51
2021/12/16 16:22:05;;;;;;;33.55;20.60;;;;;;;2.65;80.43;101059.97;1647046;87;21277;-51
2021/12/16 16:25:13;;;;;;;38.17;21.05;;;;;;;2.64;80.55;101053.72;1629976;86;21772;-50
2021/12/16 16:28:19;;;;;;;42.05;25.65;;;;;;;2.64;80.71;101044.26;1660078;86;21229;-50
2021/12/16 16:31:28;;;;;;;50.52;26.30;;;;;;;2.65;80.89;101045.09;1654520;86;21754;-50
2021/12/16 16:34:40;;;;;;;44.10;24.67;;;;;;;2.68;81.10;101040.86;1658817;86;21252;-50
2021/12/16 16:37:45;;;;;;;54.18;29.25;;;;;;;2.69;81.16;101035.81;1653956;85;21221;-50
2021/12/16 16:40:55;;;;;;;52.73;28.87;;;;;;;2.67;81.36;101036.41;1632188;88;21304;-51
2021/12/16 16:44:16;;;;;;;52.90;29.10;;;;;;;2.68;81.54;101030.05;1642850;86;21245;-50
2021/12/16 16:47:33;;;;;;;62.62;30.17;;;;;;;2.73;81.68;101033.25;1611899;88;21238;-50
2021/12/16 16:50:38;;;;;;;55.98;29.52;;;;;;;2.74;81.74;101029.59;1628128;85;21197;-49
2021/12/16 16:53:57;;;;;;;66.22;33.98;;;;;;;2.78;81.81;101021.16;1659494;86;21813;-50
2021/12/16 16:57:11;;;;;;;71.45;36.15;;;;;;;2.77;81.92;101020.78;1627983;86;21750;-50
2021/12/16 17:00:32;;;;;;;70.83;36.80;;;;;;;2.83;82.02;101018.11;1646626;87;21756;-50
2021/12/16 17:03:39;;;;;;;73.12;36.17;;;;;;;2.86;81.98;101013.83;1635238;86;21246;-51
2021/12/16 17:06:51;;;;;;;76.80;38.67;;;;;;;2.87;81.88;101006.95;1645151;86;21195;-49
2021/12/16 17:09:59;;;;;;;80.05;39.70;;;;;;;2.88;81.92;101009.19;1645064;87;21242;-49
2021/12/16 17:13:22;;;;;;;73.55;37.03;;;;;;;2.86;81.86;101007.94;1647195;83;21250;-51
2021/12/16 17:20:15;;;;;;;83.03;40.67;;;;;;;2.81;82.12;101003.83;1638581;87;21223;-50
2021/12/16 17:23:19;;;;;;;108.87;43.38;;;;;;;2.85;82.27;100989.13;1638551;87;21235;-50
2021/12/16 17:26:34;;;;;;;85.85;40.95;;;;;;;2.89;82.32;100987.92;1626179;87;21274;-49
2021/12/16 17:29:45;;;;;;;90.62;40.28;;;;;;;2.92;82.35;100978.22;1639194;87;21285;-50
2021/12/16 17:32:52;;;;;;;82.78;39.88;;;;;;;2.96;82.35;100981.09;1622221;88;21878;-49
2021/12/16 17:36:06;;;;;;;72.92;35.13;;;;;;;2.97;82.29;100978.27;1623557;88;21250;-51
2021/12/16 17:39:21;;;;;;;62.88;32.17;;;;;;;2.94;82.17;100967.69;1623294;88;21354;-51
2021/12/16 17:42:38;;;;;;;68.47;35.25;;;;;;;2.92;82.17;100960.65;1623326;88;21292;-49
2021/12/16 17:46:02;;;;;;;60.65;30.85;;;;;;;2.90;82.31;100955.87;1623379;88;21286;-49
2021/12/16 17:49:08;;;;;;;59.65;30.68;;;;;;;2.94;82.46;100955.52;1623309;87;21647;-49
2021/12/16 17:52:15;;;;;;;52.98;28.55;;;;;;;2.95;82.46;100950.95;1623494;87;21317;-49
2021/12/16 17:55:25;;;;;;;52.80;28.83;;;;;;;2.94;82.51;100945.19;1607264;87;21232;-49
2021/12/16 17:58:34;;;;;;;49.53;27.15;;;;;;;2.92;82.57;100939.02;1638474;87;21263;-50
2021/12/16 18:01:46;;;;;;;52.27;28.70;;;;;;;2.94;82.73;100939.78;1657936;86;21254;-49
2021/12/16 18:04:55;;;;;;;55.27;30.87;;;;;;;2.97;82.88;100940.89;1654658;86;21237;-49
2021/12/16 18:08:03;;;;;;;49.27;26.97;;;;;;;3.03;82.93;100945.84;1611337;87;21229;-49
2021/12/16 18:11:17;;;;;;;50.03;28.15;;;;;;;3.09;83.04;100955.72;1622550;88;21237;-48
2021/12/16 18:14:47;;;;;;;42.27;24.70;;;;;;;3.15;83.02;100955.77;1624158;84;21644;-50